• Join FlightAware (Why Join?)
  • Login
  • US Flag 
12:30PM EDT


 

Airport Tracker/Info


-or-


 

Live Flight TrackerFlight Track Log ✈ TMC808 ✈ 28-Jun-2013 ✈ KMIA - KASE

Flight Track Log - Related Links

Times and Time Zones

All times are in EDT time to prevent confusion due to time zone crossing. See the TMC808 flight status page for this flight to view local times or setup timezone preferences in your user account.

Time Position Orientation Groundspeed Altitude Reporting Facility
EDT Latitude Longitude Course Direction KTS MPH feet Rate Location/Type
01:20PM 25.8006 -80.2631 82° East 164 189 900  Level Miami Center
01:20PM 25.8056 -80.2217 82° East 198 228 2,600 2,400 Climbing Miami Center
01:21PM 25.8072 -80.1569 88° East 222 255 5,100 1,980 Climbing Miami Center
01:23PM 25.8664 -80.1264 25° Northeast 269 310 6,900 1,860 Climbing Miami Center
01:24PM 25.9172 -80.1831 315° West 271 312 9,100 2,280 Climbing Miami Center
01:25PM 25.9636 -80.2606 304° West 281 323 11,800 2,280 Climbing Miami Center
01:26PM 26.0033 -80.3381 300° West 286 329 14,000 2,040 Climbing Miami Center
01:27PM 26.0475 -80.4158 302° West 286 329 15,900 1,800 Climbing Miami Center
01:28PM 26.0894 -80.5003 299° West 299 344 17,700 1,800 Climbing Miami Center
01:29PM 26.1331 -80.5847 300° West 309 356 19,500 1,800 Climbing Miami Center
01:30PM 26.1750 -80.6625 301° West 322 371 21,400 1,740 Climbing Miami Center
01:31PM 26.2186 -80.7494 299° West 327 376 23,000 1,500 Climbing Miami Center
01:32PM 26.2750 -80.8303 308° West 327 376 24,500 1,500 Climbing Miami Center
01:33PM 26.3542 -80.9117 317° Northwest 339 390 26,100 1,440 Climbing Miami Center
01:34PM 26.4233 -80.9742 321° Northwest 351 404 27,400 1,440 Climbing Miami Center
01:35PM 26.5242 -81.0289 334° Northwest 357 411 29,000 1,440 Climbing Miami Center
01:36PM 26.6147 -81.0761 335° Northwest 362 417 30,300 1,260 Climbing Miami Center
01:37PM 26.7072 -81.1261 334° Northwest 355 409 31,600 1,020 Climbing Miami Center
01:38PM 26.7894 -81.1686 335° Northwest 355 409 32,400 720 Climbing Miami Center
01:39PM 26.8839 -81.2186 335° Northwest 360 414 33,100 720 Climbing Miami Center
01:40PM 26.9908 -81.2761 334° Northwest 377 434 33,900 720 Climbing Miami Center
01:41PM 27.0875 -81.3264 335° Northwest 385 443 34,600 660 Climbing Miami Center
01:42PM 27.1881 -81.3794 335° Northwest 390 449 35,300 660 Climbing Miami Center
01:43PM 27.2764 -81.4272 334° Northwest 395 455 36,000 660 Climbing Miami Center
01:44PM 27.3725 -81.4894 330° Northwest 395 455 36,700 660 Climbing Miami Center
01:45PM 27.4744 -81.5614 328° Northwest 395 455 37,400 600 Climbing Miami Center
01:46PM 27.5686 -81.6192 331° Northwest 395 455 38,000 300 Climbing Miami Center
01:47PM 27.6644 -81.6842 329° Northwest 395 455 38,000  Level Miami Center
01:49PM 27.8428 -81.7989 330° Northwest 406 467 38,000  Level Jacksonville Center
01:50PM 27.9497 -81.8753 328° Northwest 418 481 38,000  Level Jacksonville Center
01:51PM 28.0464 -81.9542 324° Northwest 418 481 38,000  Level Jacksonville Center
01:52PM 28.1408 -82.0311 324° Northwest 423 487 38,000  Level Jacksonville Center
01:53PM 28.2331 -82.1103 323° Northwest 423 487 38,000  Level Jacksonville Center
01:54PM 28.3275 -82.1875 324° Northwest 423 487 38,000  Level Jacksonville Center
01:55PM 28.4239 -82.2669 324° Northwest 423 487 38,000  Level Jacksonville Center
01:56PM 28.5181 -82.3444 324° Northwest 423 487 38,000  Level Jacksonville Center
01:57PM 28.6122 -82.4219 324° Northwest 423 487 38,000  Level Jacksonville Center
01:58PM 28.7003 -82.4972 323° Northwest 410 472 38,000  Level Jacksonville Center
01:59PM 28.7944 -82.5728 325° Northwest 405 466 38,000  Level Jacksonville Center
02:00PM 28.8864 -82.6508 323° Northwest 412 474 38,000  Level Jacksonville Center
02:01PM 28.9783 -82.7289 323° Northwest 412 474 38,000  Level Jacksonville Center
02:02PM 29.0744 -82.8069 325° Northwest 412 474 38,000  Level Jacksonville Center
02:03PM 29.1642 -82.8831 323° Northwest 412 474 38,000  Level Jacksonville Center
02:04PM 29.2478 -82.9758 316° Northwest 412 474 38,000  Level Jacksonville Center
02:05PM 29.3122 -83.0856 304° West 412 474 38,000  Level Jacksonville Center
02:06PM 29.3808 -83.1953 306° West 418 481 38,000  Level Jacksonville Center
02:07PM 29.4350 -83.2836 305° West 423 487 38,000 -60 Level Jacksonville Center
02:08PM 29.5181 -83.4200 305° West 433 498 37,900  Descending Jacksonville Center
02:09PM 29.5864 -83.5303 305° West 433 498 38,000  Climbing Jacksonville Center
02:10PM 29.6525 -83.6406 305° West 428 493 38,000  Level Jacksonville Center
02:11PM 29.7186 -83.7511 305° West 423 487 38,000  Level Jacksonville Center
02:12PM 29.7828 -83.8569 305° West 418 481 38,000  Level Jacksonville Center
02:13PM 29.8486 -83.9678 304° West 418 481 38,000  Level Jacksonville Center
02:14PM 29.9167 -84.0739 307° West 418 481 38,000  Level Jacksonville Center
02:15PM 29.9658 -84.1633 302° West 423 487 38,000  Level Jacksonville Center
02:16PM 30.0356 -84.2817 304° West 418 481 38,000  Level Jacksonville Center
02:17PM 30.0989 -84.3981 302° West 418 481 38,000 -60 Level Jacksonville Center
02:18PM 30.1603 -84.5117 302° West 418 481 37,900  Descending Jacksonville Center
02:19PM 30.2233 -84.6331 301° West 424 488 38,000  Climbing Jacksonville Center
02:20PM 30.2864 -84.7497 302° West 429 494 38,000  Level Jacksonville Center
02:21PM 30.3494 -84.8689 302° West 429 494 38,000  Level Jacksonville Center
02:22PM 30.4142 -84.9906 302° West 434 499 38,000  Level Jacksonville Center
02:23PM 30.4850 -85.1247 302° West 443 510 38,000  Level Jacksonville Center
02:24PM 30.5475 -85.2467 301° West 443 510 38,000  Level Jacksonville Center
02:25PM 30.5803 -85.3850 285° West 443 510 38,000  Level Jacksonville Center
02:26PM 30.6069 -85.5233 283° West 443 510 38,000  Level Jacksonville Center
02:27PM 30.6308 -85.6639 281° West 438 504 38,000  Level Jacksonville Center
02:28PM 30.6550 -85.8072 281° West 438 504 38,000 -60 Level Jacksonville Center
02:29PM 30.6789 -85.9456 281° West 448 516 37,900  Descending Jacksonville Center
02:30PM 30.7025 -86.0864 281° West 448 516 38,000  Climbing Jacksonville Center
02:31PM 30.7281 -86.2275 282° West 448 516 38,000  Level Jacksonville Center
02:32PM 30.7556 -86.3686 283° West 448 516 38,000  Level Jacksonville Center
02:33PM 30.7894 -86.5053 286° West 448 516 38,000  Level Jacksonville Center
02:34PM 30.8208 -86.6444 285° West 448 516 38,000  Level Jacksonville Center
02:35PM 30.8544 -86.7786 286° West 448 516 38,000  Level Jacksonville Center
02:37PM 30.9286 -87.1006 285° West 442 509 38,000  Level Houston Center
02:38PM 30.9631 -87.2386 286° West 445 512 38,000  Level Houston Center
02:39PM 31.0003 -87.3731 288° West 439 505 38,000  Level Houston Center
02:40PM 31.0400 -87.5372 286° West 438 504 38,000  Level Houston Center
02:41PM 31.0708 -87.6750 285° West 441 507 38,000  Level Houston Center
02:42PM 31.1056 -87.7986 288° West 443 510 38,000  Level Houston Center
02:43PM 31.1683 -87.9536 295° West 440 506 38,000 -60 Level Houston Center
02:44PM 31.2300 -88.0786 300° West 444 511 37,900 180 Descending Houston Center
02:45PM 31.2933 -88.2017 301° West 442 509 38,400 480 Climbing Houston Center
02:46PM 31.3581 -88.3314 300° West 440 506 38,900 480 Climbing Houston Center
02:47PM 31.4183 -88.4522 300° West 431 496 39,500 480 Climbing Houston Center
02:48PM 31.4778 -88.5719 300° West 430 495 39,900 240 Climbing Houston Center
02:49PM 31.5500 -88.7161 300° West 427 491 40,000  Climbing Houston Center
02:50PM 31.6092 -88.8367 300° West 428 493 40,000  Level Houston Center
02:51PM 31.6708 -88.9572 301° West 432 497 40,000  Level Houston Center
02:53PM 31.7297 -89.0797 299° West 432 497 40,000  Level Houston Center
02:54PM 31.7906 -89.1994 301° West 429 494 40,000  Level Houston Center
02:55PM 31.8489 -89.3217 299° West 430 495 40,000  Level Houston Center
02:56PM 31.9150 -89.4592 300° West 434 499 40,000  Level Memphis Center
02:57PM 31.9722 -89.5786 299° West 434 499 40,000  Level Memphis Center
02:58PM 32.0333 -89.7006 301° West 434 499 40,000  Level Memphis Center
02:59PM 32.0903 -89.8178 300° West 429 494 40,000  Level Memphis Center
03:00PM 32.1472 -89.9353 300° West 419 482 40,000  Level Memphis Center
03:01PM 32.2061 -90.0553 300° West 414 476 40,000  Level Memphis Center
03:02PM 32.2606 -90.1731 299° West 414 476 40,000  Level Memphis Center
03:03PM 32.3150 -90.2908 299° West 414 476 40,000  Level Memphis Center
03:04PM 32.3714 -90.4064 300° West 414 476 40,000  Level Memphis Center
03:05PM 32.4275 -90.5272 299° West 414 476 40,000  Level Memphis Center
03:06PM 32.4836 -90.6431 300° West 414 476 40,000  Level Memphis Center
03:07PM 32.5397 -90.7589 300° West 414 476 40,000  Level Memphis Center
03:08PM 32.5936 -90.8775 298° West 414 476 40,000  Level Memphis Center
03:09PM 32.6494 -90.9964 299° West 414 476 40,000  Level Memphis Center
03:10PM 32.7394 -91.1828 300° West 419 482 40,000  Level Fort Worth Center
03:11PM 32.7978 -91.3047 300° West 413 475 40,000  Level Fort Worth Center
03:12PM 32.8511 -91.4197 299° West 408 470 40,000  Level Fort Worth Center
03:13PM 32.9119 -91.5542 298° West 413 475 40,000  Level Fort Worth Center
03:14PM 32.9694 -91.6742 300° West 413 475 40,000  Level Fort Worth Center
03:15PM 33.0136 -91.7706 299° West 413 475 40,000  Level Fort Worth Center
03:16PM 33.0756 -91.9003 300° West 418 481 40,000  Level Fort Worth Center
03:17PM 33.1308 -92.0183 299° West 418 481 40,000  Level Fort Worth Center
03:18PM 33.1819 -92.1394 297° West 413 475 40,000  Level Fort Worth Center
03:19PM 33.2389 -92.2553 300° West 413 475 40,000  Level Fort Worth Center
03:20PM 33.2917 -92.3739 298° West 413 475 40,000  Level Fort Worth Center
03:21PM 33.3422 -92.4878 298° West 402 463 40,000  Level Fort Worth Center
03:22PM 33.3947 -92.6069 298° West 402 463 40,000  Level Fort Worth Center
03:23PM 33.4472 -92.7258 298° West 402 463 40,000  Level Fort Worth Center
03:24PM 33.4997 -92.8475 297° West 402 463 40,000  Level Fort Worth Center
03:25PM 33.5542 -92.9669 299° West 402 463 40,000  Level Fort Worth Center
03:26PM 33.6086 -93.0889 298° West 407 468 40,000  Level Fort Worth Center
03:27PM 33.6628 -93.2111 298° West 407 468 40,000  Level Fort Worth Center
03:28PM 33.7167 -93.3283 299° West 407 468 40,000  Level Fort Worth Center
03:29PM 33.7686 -93.4508 297° West 407 468 40,000  Level Fort Worth Center
03:30PM 33.8272 -93.5881 297° West 413 475 40,000  Level Fort Worth Center
03:31PM 33.8831 -93.7108 299° West 413 475 40,000  Level Fort Worth Center
03:32PM 33.9367 -93.8336 298° West 418 481 40,000  Level Fort Worth Center
03:33PM 33.9858 -93.9544 296° West 418 481 40,000  Level Fort Worth Center
03:34PM 34.0414 -94.0800 298° West 418 481 40,000  Level Fort Worth Center
03:35PM 34.0928 -94.2033 297° West 418 481 40,000  Level Fort Worth Center
03:36PM 34.1458 -94.3269 297° West 418 481 40,000  Level Fort Worth Center
03:37PM 34.1967 -94.4481 297° West 418 481 40,000  Level Fort Worth Center
03:38PM 34.2497 -94.5744 297° West 418 481 40,000  Level Fort Worth Center
03:39PM 34.3006 -94.6958 297° West 418 481 40,000  Level Fort Worth Center
03:40PM 34.3531 -94.8200 297° West 418 481 40,000  Level Fort Worth Center
03:41PM 34.4058 -94.9417 298° West 418 481 40,000  Level Fort Worth Center
03:42PM 34.4561 -95.0661 296° West 418 481 40,000  Level Fort Worth Center
03:43PM 34.5061 -95.1858 297° West 413 475 40,000  Level Fort Worth Center
03:44PM 34.5564 -95.3081 297° West 408 470 40,000  Level Fort Worth Center
03:45PM 34.6083 -95.4331 297° West 408 470 40,000  Level Fort Worth Center
03:46PM 34.6539 -95.5431 297° West 408 470 40,000  Level Fort Worth Center
03:47PM 34.6994 -95.6658 294° West 408 470 40,000  Level Fort Worth Center
03:48PM 34.7492 -95.7886 296° West 403 464 40,000  Level Fort Worth Center
03:49PM 34.7986 -95.9117 296° West 403 464 40,000  Level Fort Worth Center
03:50PM 34.8522 -96.0344 298° West 403 464 40,000  Level Fort Worth Center
03:51PM 34.9014 -96.1578 296° West 403 464 40,000  Level Fort Worth Center
03:52PM 34.9506 -96.2811 296° West 403 464 40,000  Level Fort Worth Center
03:53PM 35.0017 -96.4047 297° West 403 464 40,000  Level Fort Worth Center
03:54PM 35.0506 -96.5258 296° West 403 464 40,000  Level Fort Worth Center
03:55PM 35.0994 -96.6497 296° West 403 464 40,000  Level Fort Worth Center
03:56PM 35.1461 -96.7711 295° West 403 464 40,000  Level Fort Worth Center
03:57PM 35.1944 -96.8903 296° West 403 464 40,000  Level Fort Worth Center
03:58PM 35.2428 -97.0119 296° West 403 464 40,000  Level Fort Worth Center
03:59PM 35.2892 -97.1311 296° West 398 458 40,000  Level Fort Worth Center
04:00PM 35.3456 -97.2583 299° West 405 466 40,000  Level Fort Worth Center
04:01PM 35.3875 -97.3831 292° West 405 466 40,000  Level Fort Worth Center
04:02PM 35.4436 -97.5258 296° West 405 466 40,000  Level Fort Worth Center
04:04PM 35.5128 -97.6961 297° West 399 459 40,000  Level Albuquerque Center
04:05PM 35.5694 -97.8444 295° West 399 459 40,000  Level Albuquerque Center
04:06PM 35.6189 -97.9681 296° West 401 461 40,000  Level Albuquerque Center
04:07PM 35.6644 -98.0917 294° West 399 459 40,000  Level Albuquerque Center
04:08PM 35.7119 -98.2178 295° West 403 464 40,000  Level Albuquerque Center
04:09PM 35.7611 -98.3408 296° West 401 461 40,000  Level Albuquerque Center
04:10PM 35.8058 -98.4672 294° West 404 465 40,000  Level Albuquerque Center
04:11PM 35.8536 -98.5928 295° West 404 465 40,000  Level Albuquerque Center
04:12PM 35.9092 -98.7428 295° West 401 461 40,000  Level Albuquerque Center
04:13PM 35.9569 -98.8697 295° West 405 466 40,000  Level Albuquerque Center
04:14PM 36.0019 -98.9900 295° West 405 466 40,000  Level Albuquerque Center
04:16PM 36.0547 -99.1374 294° West  Level FlightAware Approximate
04:16PM 36.0953 -99.2436 294° West 405 466 40,000  Level Albuquerque Center
04:17PM 36.1511 -99.3931 295° West 408 470 40,000  Level Albuquerque Center
04:18PM 36.1953 -99.5181 294° West 402 463 40,000  Level Albuquerque Center
04:19PM 36.2411 -99.6428 295° West 399 459 40,000  Level Albuquerque Center
04:20PM 36.2864 -99.7686 294° West 399 459 40,000  Level Albuquerque Center
04:21PM 36.3322 -99.8953 294° West 401 461 40,000  Level Albuquerque Center
04:22PM 36.3781 -100.0211 294° West 401 461 40,000  Level Albuquerque Center
04:23PM 36.4319 -100.1736 294° West 401 461 40,000  Level Albuquerque Center
04:25PM 36.4761 -100.3011 293° West 401 461 40,000  Level Albuquerque Center
04:26PM 36.5253 -100.4339 295° West 399 459 40,000  Level Albuquerque Center
04:27PM 36.5681 -100.5564 294° West 401 461 40,000  Level Albuquerque Center
04:28PM 36.6097 -100.6789 293° West 401 461 40,000  Level Albuquerque Center
04:29PM 36.6592 -100.8208 294° West 400 460 40,000  Level Albuquerque Center
04:30PM 36.7025 -100.9417 294° West 399 459 40,000  Level Albuquerque Center
04:31PM 36.7583 -101.1047 293° West 399 459 40,000  Level Kansas City Center
04:32PM 36.8006 -101.2272 293° West 400 460 40,000  Level Kansas City Center
04:33PM 36.8667 -101.3589 302° West 400 460 40,000  Level Kansas City Center
04:34PM 36.9219 -101.4719 301° West 398 458 40,000  Level Kansas City Center
04:35PM 36.9881 -101.6014 303° West 396 456 40,000  Level Kansas City Center
04:36PM 37.0444 -101.7158 302° West 399 459 40,000  Level Kansas City Center
04:37PM 37.1111 -101.8464 303° West 399 459 40,000  Level Kansas City Center
04:38PM 37.1853 -101.9392 315° West 397 457 40,000  Level Kansas City Center
04:39PM 37.2817 -102.0364 321° Northwest 398 458 40,000  Level Kansas City Center
04:40PM 37.3647 -102.1183 322° Northwest 396 456 40,000  Level Kansas City Center
04:41PM 37.4475 -102.2031 321° Northwest 398 458 40,000  Level Kansas City Center
04:42PM 37.5450 -102.3008 322° Northwest 399 459 40,000  Level Kansas City Center
04:43PM 37.6267 -102.3858 321° Northwest 399 459 40,000  Level Kansas City Center
04:44PM 37.6833 -102.4408 322° Northwest 400 460 40,000  Level Denver Center
04:45PM 37.7825 -102.5428 321° Northwest 398 458 40,000  Level Denver Center
04:46PM 37.8631 -102.6281 320° Northwest 396 456 40,000  Level Denver Center
04:47PM 37.9581 -102.7286 320° Northwest 398 458 40,000  Level Denver Center
04:48PM 38.0364 -102.8114 320° Northwest 397 457 40,000  Level Denver Center
04:49PM 38.1311 -102.9125 320° Northwest 398 458 40,000  Level Denver Center
04:50PM 38.2119 -102.9989 320° Northwest 395 455 40,000 -240 Level Denver Center
04:51PM 38.3069 -103.0994 320° Northwest 397 457 39,600 -660 Descending Denver Center
04:52PM 38.3881 -103.1869 320° Northwest 398 458 38,700 -780 Descending Denver Center
04:53PM 38.4839 -103.2892 320° Northwest 401 461 38,000 -480 Descending Denver Center
04:54PM 38.5633 -103.3758 320° Northwest 394 453 37,800 -660 Descending Denver Center
04:55PM 38.6583 -103.4781 320° Northwest 396 456 36,700 -1,020 Descending Denver Center
04:56PM 38.7394 -103.5667 320° Northwest 400 460 35,700 -1,020 Descending Denver Center
04:57PM 38.8208 -103.6550 320° Northwest 403 464 34,700 -840 Descending Denver Center
04:58PM 38.9147 -103.7581 320° Northwest 399 459 34,000 -360 Descending Denver Center
04:59PM 38.9986 -103.8511 319° Northwest 410 472 34,000  Level Denver Center
05:00PM 39.0933 -103.9547 320° Northwest 404 465 34,000  Level Denver Center
05:02PM 39.1758 -104.0464 319° Northwest 407 468 34,000  Level Denver Center
05:03PM 39.2728 -104.1544 319° Northwest 420 483 34,000  Level Denver Center
05:04PM 39.3647 -104.2558 320° Northwest 405 466 34,000  Level Denver Center
05:05PM 39.4514 -104.3533 319° Northwest 412 474 34,000  Level Denver Center
05:06PM 39.5358 -104.4497 319° Northwest 403 464 34,000  Level Denver Center
05:07PM 39.6206 -104.5650 314° West 409 471 34,000  Level Denver Center
05:08PM 39.6619 -104.7025 291° West 412 474 34,000  Level Denver Center
05:09PM 39.6642 -104.8661 271° West 420 483 34,000  Level Denver Center
05:10PM 39.6492 -105.0172 263° West 421 484 34,000  Level Denver Center
05:11PM 39.6331 -105.1644 262° West 406 467 34,000 -300 Level Denver Center
05:12PM 39.6183 -105.3189 263° West 402 463 33,400 -1,080 Descending Denver Center
05:13PM 39.6017 -105.4625 261° West 410 472 31,800 -1,680 Descending Denver Center
05:14PM 39.5839 -105.6175 262° West 405 466 30,000 -1,800 Descending Denver Center
05:15PM 39.5675 -105.7642 262° West 414 476 28,200 -1,500 Descending Denver Center
05:16PM 39.5569 -105.8811 263° West 368 423 27,000 -1,320 Descending Denver Center
05:17PM 39.5372 -106.0472 261° West 388 447 25,500 -1,800 Descending Denver Center
05:18PM 39.5236 -106.1772 262° West 367 422 23,400 -1,980 Descending Denver Center
05:19PM 39.5097 -106.3019 262° West 351 404 21,400 -1,680 Descending Denver Center
05:20PM 39.4953 -106.4211 261° West 339 390 20,000 -720 Descending Denver Center
05:21PM 39.4800 -106.5539 262° West 330 380 20,000 -600 Level Denver Center
05:22PM 39.4669 -106.6639 261° West 324 373 18,800 -1,140 Descending Denver Center
05:23PM 39.4514 -106.7822 260° West 301 346 17,700 -1,020 Descending Denver Center
05:24PM 39.4467 -106.8681 266° West 249 287 16,800 -1,320 Descending Denver Center
05:25PM 39.4486 -106.9392 272° West 212 244 15,000 -2,040 Descending Denver Center
05:26PM 39.3961 -106.9825 213° Southwest 196 226 12,700 -1,800 Descending Denver Center
05:27PM 39.3514 -106.9608 159° South 183 211 11,300 -1,440 Descending Denver Center
05:28PM 39.3100 -106.9297 150° Southeast 177 204 9,800 -1,380 Descending Denver Center
05:29PM 39.2731 -106.8858 137° Southeast 174 200 8,500 -1,260 Descending Denver Center
05:31PM 39.2167 -106.8667 180° South  Level FlightAware Approximate